UUEE/SVO METAR and TAF weather

Enter ICAO airport designator
Station Type Date Time Source
UUEE METAR 2021/03/05 20:00 UTC NOAA

UUEE 052000Z 30003MPS CAVOK M07/M11 Q1012 R24L/510145 R24C/510130 NOSIG


Station Type Date Time Source
UUEE Decoded METAR 2021/03/05 20:00 UTC NOAA

Moscow / Sheremet'Ye , Russia (UUEE) 55-59N 037-30E
Mar 05, 2021 - 03:00 PM EST / 2021.03.05 2000 UTC
Wind: from the WNW (300 degrees) at 7 MPH (6 KT):0
Visibility: greater than 7 mile(s):0
Temperature: 19 F (-7 C)
Windchill: 10 F (-12 C):1
Dew Point: 12 F (-11 C)
Relative Humidity: 73%
Pressure (altimeter): 29.88 in. Hg (1012 hPa)
ob: UUEE 052000Z 30003MPS CAVOK M07/M11 Q1012 R24L/510145 R24C/510130 NOSIG
cycle: 20

Station Type Date Time Source
UUEE TAF 2021/03/05 18:21 UTC NOAA

TAF UUEE 051657Z 0518/0618 27003G08MPS 9999 BKN016 TXM05/0613Z TNM14/0604Z
TEMPO 0518/0615 2100 -SHSN SCT004 BKN016CB

Example: see airport list